sensor_id;sensor_type;location;lat;lon;timestamp;P1;durP1;ratioP1;P2;durP2;ratioP2
70213;SDS011;60138;55.808;37.078;2023-02-08T00:01:15;15.30;;;9.35;;
70213;SDS011;60138;55.808;37.078;2023-02-08T00:03:43;16.90;;;8.18;;
70213;SDS011;60138;55.808;37.078;2023-02-08T00:06:11;14.00;;;8.90;;
70213;SDS011;60138;55.808;37.078;2023-02-08T00:08:38;14.68;;;9.40;;
70213;SDS011;60138;55.808;37.078;2023-02-08T00:11:04;10.32;;;7.25;;
70213;SDS011;60138;55.808;37.078;2023-02-08T00:13:31;11.33;;;7.10;;
70213;SDS011;60138;55.808;37.078;2023-02-08T00:15:57;10.10;;;6.32;;
70213;SDS011;60138;55.808;37.078;2023-02-08T00:18:23;11.60;;;6.97;;
70213;SDS011;60138;55.808;37.078;2023-02-08T00:20:48;13.03;;;8.30;;
70213;SDS011;60138;55.808;37.078;2023-02-08T00:23:14;12.57;;;7.60;;
70213;SDS011;60138;55.808;37.078;2023-02-08T00:25:59;16.57;;;9.87;;
70213;SDS011;60138;55.808;37.078;2023-02-08T00:28:25;21.00;;;11.98;;
70213;SDS011;60138;55.808;37.078;2023-02-08T00:30:50;16.03;;;9.97;;
70213;SDS011;60138;55.808;37.078;2023-02-08T00:33:17;12.77;;;8.23;;
70213;SDS011;60138;55.808;37.078;2023-02-08T00:35:43;11.75;;;6.93;;
70213;SDS011;60138;55.808;37.078;2023-02-08T00:38:08;16.60;;;10.53;;
70213;SDS011;60138;55.808;37.078;2023-02-08T00:40:34;15.05;;;8.85;;
70213;SDS011;60138;55.808;37.078;2023-02-08T00:43:00;13.80;;;8.70;;
70213;SDS011;60138;55.808;37.078;2023-02-08T00:45:26;14.07;;;9.02;;
70213;SDS011;60138;55.808;37.078;2023-02-08T00:47:55;14.68;;;8.32;;
70213;SDS011;60138;55.808;37.078;2023-02-08T00:50:20;15.63;;;9.63;;
70213;SDS011;60138;55.808;37.078;2023-02-08T00:52:46;12.93;;;9.40;;
70213;SDS011;60138;55.808;37.078;2023-02-08T00:55:12;13.32;;;9.15;;
70213;SDS011;60138;55.808;37.078;2023-02-08T00:57:38;13.65;;;8.88;;
70213;SDS011;60138;55.808;37.078;2023-02-08T01:00:04;16.27;;;9.63;;
70213;SDS011;60138;55.808;37.078;2023-02-08T01:02:32;11.85;;;7.78;;
70213;SDS011;60138;55.808;37.078;2023-02-08T01:04:57;14.60;;;8.63;;
70213;SDS011;60138;55.808;37.078;2023-02-08T01:07:23;13.48;;;9.23;;
70213;SDS011;60138;55.808;37.078;2023-02-08T01:09:49;14.27;;;10.73;;
70213;SDS011;60138;55.808;37.078;2023-02-08T01:12:15;12.90;;;7.88;;
70213;SDS011;60138;55.808;37.078;2023-02-08T01:14:40;13.13;;;9.60;;
70213;SDS011;60138;55.808;37.078;2023-02-08T01:17:06;17.23;;;9.25;;
70213;SDS011;60138;55.808;37.078;2023-02-08T01:19:32;9.13;;;6.63;;
70213;SDS011;60138;55.808;37.078;2023-02-08T01:22:01;14.20;;;9.07;;
70213;SDS011;60138;55.808;37.078;2023-02-08T01:24:27;10.60;;;7.30;;
70213;SDS011;60138;55.808;37.078;2023-02-08T01:26:53;9.40;;;5.83;;
70213;SDS011;60138;55.808;37.078;2023-02-08T01:29:19;10.73;;;7.75;;
70213;SDS011;60138;55.808;37.078;2023-02-08T01:31:45;10.87;;;7.27;;
70213;SDS011;60138;55.808;37.078;2023-02-08T01:34:11;13.68;;;8.38;;
70213;SDS011;60138;55.808;37.078;2023-02-08T01:39:40;8.00;;;6.10;;
70213;SDS011;60138;55.808;37.078;2023-02-08T01:42:05;11.25;;;7.20;;
70213;SDS011;60138;55.808;37.078;2023-02-08T01:47:44;10.40;;;7.18;;
70213;SDS011;60138;55.808;37.078;2023-02-08T01:50:12;12.48;;;7.45;;
70213;SDS011;60138;55.808;37.078;2023-02-08T01:52:40;13.25;;;9.48;;
70213;SDS011;60138;55.808;37.078;2023-02-08T01:57:58;9.38;;;7.00;;
70213;SDS011;60138;55.808;37.078;2023-02-08T02:00:27;12.05;;;7.50;;
70213;SDS011;60138;55.808;37.078;2023-02-08T02:02:53;11.80;;;7.57;;
70213;SDS011;60138;55.808;37.078;2023-02-08T02:05:22;12.68;;;8.43;;
70213;SDS011;60138;55.808;37.078;2023-02-08T02:07:52;10.95;;;7.25;;
70213;SDS011;60138;55.808;37.078;2023-02-08T02:12:53;10.18;;;7.15;;
70213;SDS011;60138;55.808;37.078;2023-02-08T02:15:21;10.52;;;7.55;;
70213;SDS011;60138;55.808;37.078;2023-02-08T02:17:47;13.53;;;9.00;;
70213;SDS011;60138;55.808;37.078;2023-02-08T02:20:47;13.88;;;7.57;;
70213;SDS011;60138;55.808;37.078;2023-02-08T02:31:10;13.05;;;8.25;;
70213;SDS011;60138;55.808;37.078;2023-02-08T02:44:23;8.00;;;6.50;;
70213;SDS011;60138;55.808;37.078;2023-02-08T02:47:02;12.27;;;7.47;;
70213;SDS011;60138;55.808;37.078;2023-02-08T02:52:18;12.25;;;7.90;;
70213;SDS011;60138;55.808;37.078;2023-02-08T02:54:50;11.37;;;6.97;;
70213;SDS011;60138;55.808;37.078;2023-02-08T02:57:21;9.20;;;6.47;;
70213;SDS011;60138;55.808;37.078;2023-02-08T03:02:55;10.77;;;7.73;;
70213;SDS011;60138;55.808;37.078;2023-02-08T03:05:21;11.38;;;7.03;;
70213;SDS011;60138;55.808;37.078;2023-02-08T03:10:59;9.27;;;6.55;;
70213;SDS011;60138;55.808;37.078;2023-02-08T03:13:33;8.88;;;6.15;;
70213;SDS011;60138;55.808;37.078;2023-02-08T03:16:22;10.52;;;6.97;;
70213;SDS011;60138;55.808;37.078;2023-02-08T03:24:48;12.27;;;7.00;;
70213;SDS011;60138;55.808;37.078;2023-02-08T03:27:21;10.83;;;6.90;;
70213;SDS011;60138;55.808;37.078;2023-02-08T03:29:58;10.38;;;6.68;;
70213;SDS011;60138;55.808;37.078;2023-02-08T03:38:10;11.70;;;7.35;;
70213;SDS011;60138;55.808;37.078;2023-02-08T03:40:43;10.18;;;6.97;;
70213;SDS011;60138;55.808;37.078;2023-02-08T03:43:22;8.55;;;5.35;;
70213;SDS011;60138;55.808;37.078;2023-02-08T03:46:03;10.90;;;7.83;;
70213;SDS011;60138;55.808;37.078;2023-02-08T03:48:45;12.35;;;7.35;;
70213;SDS011;60138;55.808;37.078;2023-02-08T03:51:16;11.15;;;7.20;;
70213;SDS011;60138;55.808;37.078;2023-02-08T03:53:44;11.80;;;7.57;;
70213;SDS011;60138;55.808;37.078;2023-02-08T03:56:56;12.77;;;7.88;;
70213;SDS011;60138;55.808;37.078;2023-02-08T04:01:57;15.95;;;8.30;;
70213;SDS011;60138;55.808;37.078;2023-02-08T04:04:43;13.05;;;7.38;;
70213;SDS011;60138;55.808;37.078;2023-02-08T04:07:12;14.82;;;9.25;;
70213;SDS011;60138;55.808;37.078;2023-02-08T04:09:37;11.13;;;7.35;;
70213;SDS011;60138;55.808;37.078;2023-02-08T04:12:03;14.43;;;8.10;;
70213;SDS011;60138;55.808;37.078;2023-02-08T04:14:30;14.48;;;8.20;;
70213;SDS011;60138;55.808;37.078;2023-02-08T04:16:55;15.20;;;8.17;;
70213;SDS011;60138;55.808;37.078;2023-02-08T04:19:21;16.77;;;9.75;;
70213;SDS011;60138;55.808;37.078;2023-02-08T04:21:47;14.53;;;8.40;;
70213;SDS011;60138;55.808;37.078;2023-02-08T04:24:12;12.77;;;8.07;;
70213;SDS011;60138;55.808;37.078;2023-02-08T04:26:38;17.77;;;8.93;;
70213;SDS011;60138;55.808;37.078;2023-02-08T04:29:04;13.93;;;7.68;;
70213;SDS011;60138;55.808;37.078;2023-02-08T04:31:30;13.87;;;8.00;;
70213;SDS011;60138;55.808;37.078;2023-02-08T04:33:55;15.05;;;7.75;;
70213;SDS011;60138;55.808;37.078;2023-02-08T04:36:21;15.40;;;9.17;;
70213;SDS011;60138;55.808;37.078;2023-02-08T04:38:47;16.95;;;9.30;;
70213;SDS011;60138;55.808;37.078;2023-02-08T04:41:12;9.95;;;7.63;;
70213;SDS011;60138;55.808;37.078;2023-02-08T04:43:38;16.90;;;9.70;;
70213;SDS011;60138;55.808;37.078;2023-02-08T04:46:04;14.65;;;8.90;;
70213;SDS011;60138;55.808;37.078;2023-02-08T04:48:30;11.63;;;7.97;;
70213;SDS011;60138;55.808;37.078;2023-02-08T04:50:56;15.13;;;9.40;;
70213;SDS011;60138;55.808;37.078;2023-02-08T04:53:24;10.95;;;7.10;;
70213;SDS011;60138;55.808;37.078;2023-02-08T04:55:49;8.97;;;5.77;;
70213;SDS011;60138;55.808;37.078;2023-02-08T04:58:16;11.90;;;7.47;;
70213;SDS011;60138;55.808;37.078;2023-02-08T05:01:04;12.82;;;8.18;;
70213;SDS011;60138;55.808;37.078;2023-02-08T05:03:33;14.80;;;9.65;;
70213;SDS011;60138;55.808;37.078;2023-02-08T05:05:59;17.42;;;9.70;;
70213;SDS011;60138;55.808;37.078;2023-02-08T05:08:25;14.43;;;8.82;;
70213;SDS011;60138;55.808;37.078;2023-02-08T05:10:51;17.23;;;9.77;;
70213;SDS011;60138;55.808;37.078;2023-02-08T05:13:17;14.23;;;7.75;;
70213;SDS011;60138;55.808;37.078;2023-02-08T05:15:43;11.73;;;8.43;;
70213;SDS011;60138;55.808;37.078;2023-02-08T05:18:08;14.30;;;8.80;;
70213;SDS011;60138;55.808;37.078;2023-02-08T05:20:34;15.43;;;8.73;;
70213;SDS011;60138;55.808;37.078;2023-02-08T05:23:00;16.05;;;9.55;;
70213;SDS011;60138;55.808;37.078;2023-02-08T05:28:10;18.10;;;9.05;;
70213;SDS011;60138;55.808;37.078;2023-02-08T05:30:36;16.73;;;9.80;;
70213;SDS011;60138;55.808;37.078;2023-02-08T05:33:03;14.57;;;9.05;;
70213;SDS011;60138;55.808;37.078;2023-02-08T05:35:28;15.65;;;8.43;;
70213;SDS011;60138;55.808;37.078;2023-02-08T05:37:54;14.73;;;9.07;;
70213;SDS011;60138;55.808;37.078;2023-02-08T05:40:20;16.50;;;9.30;;
70213;SDS011;60138;55.808;37.078;2023-02-08T05:42:46;18.33;;;9.93;;
70213;SDS011;60138;55.808;37.078;2023-02-08T05:45:12;15.37;;;8.47;;
70213;SDS011;60138;55.808;37.078;2023-02-08T05:47:38;17.77;;;8.98;;
70213;SDS011;60138;55.808;37.078;2023-02-08T05:50:03;14.25;;;9.05;;
70213;SDS011;60138;55.808;37.078;2023-02-08T05:52:30;14.60;;;8.77;;
70213;SDS011;60138;55.808;37.078;2023-02-08T05:54:56;16.98;;;9.55;;
70213;SDS011;60138;55.808;37.078;2023-02-08T05:57:22;17.20;;;10.15;;
70213;SDS011;60138;55.808;37.078;2023-02-08T05:59:47;17.03;;;10.60;;
70213;SDS011;60138;55.808;37.078;2023-02-08T06:02:13;16.98;;;8.43;;
70213;SDS011;60138;55.808;37.078;2023-02-08T06:04:39;16.63;;;8.80;;
70213;SDS011;60138;55.808;37.078;2023-02-08T06:07:05;10.88;;;6.45;;
70213;SDS011;60138;55.808;37.078;2023-02-08T06:09:30;13.17;;;8.03;;
70213;SDS011;60138;55.808;37.078;2023-02-08T06:11:56;14.13;;;9.45;;
70213;SDS011;60138;55.808;37.078;2023-02-08T06:14:22;13.18;;;7.75;;
70213;SDS011;60138;55.808;37.078;2023-02-08T06:16:48;10.77;;;6.70;;
70213;SDS011;60138;55.808;37.078;2023-02-08T06:19:13;21.00;;;10.50;;
70213;SDS011;60138;55.808;37.078;2023-02-08T06:21:39;11.73;;;7.60;;
70213;SDS011;60138;55.808;37.078;2023-02-08T06:24:05;20.05;;;8.45;;
70213;SDS011;60138;55.808;37.078;2023-02-08T06:26:31;24.40;;;11.27;;
70213;SDS011;60138;55.808;37.078;2023-02-08T06:28:57;23.92;;;9.75;;
70213;SDS011;60138;55.808;37.078;2023-02-08T06:31:42;19.80;;;10.02;;
70213;SDS011;60138;55.808;37.078;2023-02-08T06:34:08;14.73;;;9.30;;
70213;SDS011;60138;55.808;37.078;2023-02-08T06:36:33;18.67;;;8.77;;
70213;SDS011;60138;55.808;37.078;2023-02-08T06:38:59;11.37;;;7.03;;
70213;SDS011;60138;55.808;37.078;2023-02-08T06:41:25;18.17;;;9.52;;
70213;SDS011;60138;55.808;37.078;2023-02-08T06:43:50;17.50;;;8.90;;
70213;SDS011;60138;55.808;37.078;2023-02-08T06:46:16;17.20;;;8.55;;
70213;SDS011;60138;55.808;37.078;2023-02-08T06:48:42;17.67;;;8.93;;
70213;SDS011;60138;55.808;37.078;2023-02-08T06:51:08;15.82;;;8.48;;
70213;SDS011;60138;55.808;37.078;2023-02-08T06:53:33;14.90;;;8.50;;
70213;SDS011;60138;55.808;37.078;2023-02-08T06:55:59;14.05;;;8.07;;
70213;SDS011;60138;55.808;37.078;2023-02-08T06:58:25;11.97;;;7.90;;
70213;SDS011;60138;55.808;37.078;2023-02-08T07:00:51;11.70;;;7.28;;
70213;SDS011;60138;55.808;37.078;2023-02-08T07:03:16;18.57;;;8.50;;
70213;SDS011;60138;55.808;37.078;2023-02-08T07:05:42;14.30;;;8.50;;
70213;SDS011;60138;55.808;37.078;2023-02-08T07:08:08;12.60;;;7.38;;
70213;SDS011;60138;55.808;37.078;2023-02-08T07:10:34;14.00;;;8.00;;
70213;SDS011;60138;55.808;37.078;2023-02-08T07:13:02;16.03;;;8.70;;
70213;SDS011;60138;55.808;37.078;2023-02-08T07:15:28;14.32;;;8.82;;
70213;SDS011;60138;55.808;37.078;2023-02-08T07:17:53;16.60;;;8.27;;
70213;SDS011;60138;55.808;37.078;2023-02-08T07:20:19;15.77;;;7.55;;
70213;SDS011;60138;55.808;37.078;2023-02-08T07:22:45;14.30;;;7.30;;
70213;SDS011;60138;55.808;37.078;2023-02-08T07:25:10;8.52;;;6.38;;
70213;SDS011;60138;55.808;37.078;2023-02-08T07:27:36;12.33;;;7.67;;
70213;SDS011;60138;55.808;37.078;2023-02-08T07:30:02;13.98;;;7.53;;
70213;SDS011;60138;55.808;37.078;2023-02-08T07:32:29;11.60;;;7.47;;
70213;SDS011;60138;55.808;37.078;2023-02-08T07:34:55;13.50;;;8.30;;
70213;SDS011;60138;55.808;37.078;2023-02-08T07:37:20;14.13;;;8.10;;
70213;SDS011;60138;55.808;37.078;2023-02-08T07:39:46;12.73;;;6.90;;
70213;SDS011;60138;55.808;37.078;2023-02-08T07:42:12;14.13;;;8.35;;
70213;SDS011;60138;55.808;37.078;2023-02-08T07:44:50;16.63;;;8.88;;
70213;SDS011;60138;55.808;37.078;2023-02-08T07:47:16;9.10;;;6.18;;
70213;SDS011;60138;55.808;37.078;2023-02-08T07:52:27;14.50;;;8.18;;
70213;SDS011;60138;55.808;37.078;2023-02-08T07:54:53;12.95;;;8.00;;
70213;SDS011;60138;55.808;37.078;2023-02-08T07:57:19;13.93;;;8.23;;
70213;SDS011;60138;55.808;37.078;2023-02-08T07:59:44;10.30;;;6.15;;
70213;SDS011;60138;55.808;37.078;2023-02-08T08:02:11;12.68;;;8.30;;
70213;SDS011;60138;55.808;37.078;2023-02-08T08:04:38;16.80;;;6.78;;
70213;SDS011;60138;55.808;37.078;2023-02-08T08:07:04;14.00;;;8.00;;
70213;SDS011;60138;55.808;37.078;2023-02-08T08:09:29;14.53;;;8.53;;
70213;SDS011;60138;55.808;37.078;2023-02-08T08:11:55;13.10;;;8.07;;
70213;SDS011;60138;55.808;37.078;2023-02-08T08:14:21;16.00;;;7.40;;
70213;SDS011;60138;55.808;37.078;2023-02-08T08:16:46;10.83;;;7.80;;
70213;SDS011;60138;55.808;37.078;2023-02-08T08:19:12;14.15;;;8.35;;
70213;SDS011;60138;55.808;37.078;2023-02-08T08:21:38;10.57;;;7.70;;
70213;SDS011;60138;55.808;37.078;2023-02-08T08:26:48;13.15;;;8.23;;
70213;SDS011;60138;55.808;37.078;2023-02-08T08:29:14;12.93;;;7.78;;
70213;SDS011;60138;55.808;37.078;2023-02-08T08:31:41;13.63;;;8.03;;
70213;SDS011;60138;55.808;37.078;2023-02-08T08:34:07;13.75;;;8.05;;
70213;SDS011;60138;55.808;37.078;2023-02-08T08:36:33;12.75;;;7.65;;
70213;SDS011;60138;55.808;37.078;2023-02-08T08:38:59;12.30;;;7.37;;
70213;SDS011;60138;55.808;37.078;2023-02-08T08:41:24;15.10;;;7.50;;
70213;SDS011;60138;55.808;37.078;2023-02-08T08:43:50;15.27;;;8.30;;
70213;SDS011;60138;55.808;37.078;2023-02-08T08:46:16;11.80;;;7.35;;
70213;SDS011;60138;55.808;37.078;2023-02-08T08:48:41;15.43;;;7.93;;
70213;SDS011;60138;55.808;37.078;2023-02-08T08:51:08;10.93;;;6.82;;
70213;SDS011;60138;55.808;37.078;2023-02-08T08:53:33;10.40;;;7.03;;
70213;SDS011;60138;55.808;37.078;2023-02-08T08:55:59;12.20;;;7.70;;
70213;SDS011;60138;55.808;37.078;2023-02-08T08:58:25;11.30;;;7.77;;
70213;SDS011;60138;55.808;37.078;2023-02-08T09:00:51;18.77;;;8.95;;
70213;SDS011;60138;55.808;37.078;2023-02-08T09:03:17;12.50;;;7.50;;
70213;SDS011;60138;55.808;37.078;2023-02-08T09:05:42;13.13;;;6.63;;
70213;SDS011;60138;55.808;37.078;2023-02-08T09:08:08;14.17;;;7.20;;
70213;SDS011;60138;55.808;37.078;2023-02-08T09:10:34;14.70;;;8.27;;
70213;SDS011;60138;55.808;37.078;2023-02-08T09:12:59;13.85;;;7.40;;
70213;SDS011;60138;55.808;37.078;2023-02-08T09:15:25;16.07;;;8.70;;
70213;SDS011;60138;55.808;37.078;2023-02-08T09:18:10;13.25;;;7.07;;
70213;SDS011;60138;55.808;37.078;2023-02-08T09:20:39;14.68;;;8.07;;
70213;SDS011;60138;55.808;37.078;2023-02-08T09:23:05;13.93;;;8.23;;
70213;SDS011;60138;55.808;37.078;2023-02-08T09:25:30;15.23;;;8.25;;
70213;SDS011;60138;55.808;37.078;2023-02-08T09:28:15;12.23;;;7.07;;
70213;SDS011;60138;55.808;37.078;2023-02-08T09:31:05;9.05;;;6.53;;
70213;SDS011;60138;55.808;37.078;2023-02-08T09:33:32;9.65;;;5.88;;
70213;SDS011;60138;55.808;37.078;2023-02-08T09:35:58;9.67;;;6.43;;
70213;SDS011;60138;55.808;37.078;2023-02-08T09:38:24;10.98;;;7.00;;
70213;SDS011;60138;55.808;37.078;2023-02-08T09:40:58;16.60;;;7.80;;
70213;SDS011;60138;55.808;37.078;2023-02-08T09:46:20;12.57;;;7.88;;
70213;SDS011;60138;55.808;37.078;2023-02-08T09:48:51;13.07;;;7.70;;
70213;SDS011;60138;55.808;37.078;2023-02-08T09:54:18;9.73;;;6.75;;
70213;SDS011;60138;55.808;37.078;2023-02-08T09:56:45;11.98;;;7.45;;
70213;SDS011;60138;55.808;37.078;2023-02-08T10:02:00;12.18;;;7.38;;
70213;SDS011;60138;55.808;37.078;2023-02-08T10:07:19;11.83;;;7.63;;
70213;SDS011;60138;55.808;37.078;2023-02-08T10:09:45;14.23;;;9.38;;
70213;SDS011;60138;55.808;37.078;2023-02-08T10:17:50;14.13;;;7.60;;
70213;SDS011;60138;55.808;37.078;2023-02-08T10:20:31;15.60;;;8.03;;
70213;SDS011;60138;55.808;37.078;2023-02-08T10:23:04;11.40;;;7.45;;
70213;SDS011;60138;55.808;37.078;2023-02-08T10:26:28;10.63;;;6.80;;
70213;SDS011;60138;55.808;37.078;2023-02-08T10:32:21;12.77;;;8.07;;
70213;SDS011;60138;55.808;37.078;2023-02-08T10:34:53;11.82;;;7.65;;
70213;SDS011;60138;55.808;37.078;2023-02-08T10:37:32;11.77;;;7.38;;
70213;SDS011;60138;55.808;37.078;2023-02-08T10:40:06;9.20;;;6.43;;
70213;SDS011;60138;55.808;37.078;2023-02-08T10:43:43;7.32;;;5.53;;
70213;SDS011;60138;55.808;37.078;2023-02-08T10:51:17;10.43;;;6.07;;
70213;SDS011;60138;55.808;37.078;2023-02-08T10:53:44;12.32;;;8.07;;
70213;SDS011;60138;55.808;37.078;2023-02-08T10:59:08;10.68;;;6.88;;
70213;SDS011;60138;55.808;37.078;2023-02-08T11:01:46;9.15;;;6.63;;
70213;SDS011;60138;55.808;37.078;2023-02-08T11:04:13;8.32;;;6.10;;
70213;SDS011;60138;55.808;37.078;2023-02-08T11:06:40;7.70;;;5.87;;
70213;SDS011;60138;55.808;37.078;2023-02-08T11:09:18;8.43;;;6.25;;
70213;SDS011;60138;55.808;37.078;2023-02-08T11:11:46;9.57;;;6.88;;
70213;SDS011;60138;55.808;37.078;2023-02-08T11:14:15;8.75;;;6.70;;
70213;SDS011;60138;55.808;37.078;2023-02-08T11:22:04;10.25;;;6.80;;
70213;SDS011;60138;55.808;37.078;2023-02-08T11:24:34;14.13;;;7.23;;
70213;SDS011;60138;55.808;37.078;2023-02-08T11:27:03;9.68;;;6.25;;
70213;SDS011;60138;55.808;37.078;2023-02-08T11:32:39;10.18;;;6.88;;
70213;SDS011;60138;55.808;37.078;2023-02-08T11:35:25;10.23;;;7.40;;
70213;SDS011;60138;55.808;37.078;2023-02-08T11:37:53;12.05;;;7.35;;
70213;SDS011;60138;55.808;37.078;2023-02-08T11:40:28;11.45;;;7.00;;
70213;SDS011;60138;55.808;37.078;2023-02-08T11:42:59;14.53;;;6.70;;
70213;SDS011;60138;55.808;37.078;2023-02-08T11:45:29;9.73;;;6.15;;
70213;SDS011;60138;55.808;37.078;2023-02-08T11:47:58;10.25;;;6.75;;
70213;SDS011;60138;55.808;37.078;2023-02-08T11:50:32;9.60;;;6.57;;
70213;SDS011;60138;55.808;37.078;2023-02-08T11:53:04;8.65;;;6.10;;
70213;SDS011;60138;55.808;37.078;2023-02-08T11:55:32;10.52;;;5.85;;
70213;SDS011;60138;55.808;37.078;2023-02-08T11:58:18;7.90;;;5.72;;
70213;SDS011;60138;55.808;37.078;2023-02-08T12:03:51;8.98;;;7.13;;
70213;SDS011;60138;55.808;37.078;2023-02-08T12:25:48;8.93;;;6.07;;
70213;SDS011;60138;55.808;37.078;2023-02-08T12:34:18;10.50;;;6.82;;
70213;SDS011;60138;55.808;37.078;2023-02-08T12:40:07;9.50;;;6.90;;
70213;SDS011;60138;55.808;37.078;2023-02-08T12:42:58;8.82;;;6.45;;
70213;SDS011;60138;55.808;37.078;2023-02-08T12:48:15;6.05;;;4.60;;
70213;SDS011;60138;55.808;37.078;2023-02-08T12:50:52;7.32;;;5.35;;
70213;SDS011;60138;55.808;37.078;2023-02-08T12:53:59;8.63;;;6.50;;
70213;SDS011;60138;55.808;37.078;2023-02-08T12:56:20;7.93;;;5.50;;
70213;SDS011;60138;55.808;37.078;2023-02-08T12:58:57;7.18;;;5.78;;
70213;SDS011;60138;55.808;37.078;2023-02-08T13:01:27;8.10;;;6.00;;
70213;SDS011;60138;55.808;37.078;2023-02-08T13:03:59;8.10;;;6.57;;
70213;SDS011;60138;55.808;37.078;2023-02-08T13:06:37;8.93;;;5.97;;
70213;SDS011;60138;55.808;37.078;2023-02-08T13:11:58;7.70;;;5.10;;
70213;SDS011;60138;55.808;37.078;2023-02-08T13:14:56;9.70;;;5.10;;
70213;SDS011;60138;55.808;37.078;2023-02-08T13:17:46;9.25;;;5.43;;
70213;SDS011;60138;55.808;37.078;2023-02-08T13:23:02;6.17;;;4.57;;
70213;SDS011;60138;55.808;37.078;2023-02-08T13:25:35;7.95;;;5.15;;
70213;SDS011;60138;55.808;37.078;2023-02-08T13:28:05;8.90;;;5.97;;
70213;SDS011;60138;55.808;37.078;2023-02-08T13:30:32;8.80;;;5.50;;
70213;SDS011;60138;55.808;37.078;2023-02-08T13:33:07;8.88;;;6.75;;
70213;SDS011;60138;55.808;37.078;2023-02-08T13:35:59;10.75;;;6.07;;
70213;SDS011;60138;55.808;37.078;2023-02-08T13:38:27;7.25;;;5.32;;
70213;SDS011;60138;55.808;37.078;2023-02-08T13:43:49;11.07;;;6.40;;
70213;SDS011;60138;55.808;37.078;2023-02-08T13:46:18;11.82;;;6.20;;
70213;SDS011;60138;55.808;37.078;2023-02-08T13:48:50;6.93;;;5.10;;
70213;SDS011;60138;55.808;37.078;2023-02-08T13:56:36;8.65;;;5.97;;
70213;SDS011;60138;55.808;37.078;2023-02-08T13:59:24;11.27;;;7.07;;
70213;SDS011;60138;55.808;37.078;2023-02-08T14:04:42;7.35;;;5.72;;
70213;SDS011;60138;55.808;37.078;2023-02-08T14:07:43;8.97;;;5.17;;
70213;SDS011;60138;55.808;37.078;2023-02-08T14:13:00;8.07;;;5.35;;
70213;SDS011;60138;55.808;37.078;2023-02-08T14:15:35;7.97;;;5.63;;
70213;SDS011;60138;55.808;37.078;2023-02-08T14:18:02;6.43;;;4.78;;
70213;SDS011;60138;55.808;37.078;2023-02-08T14:20:42;7.38;;;5.28;;
70213;SDS011;60138;55.808;37.078;2023-02-08T14:23:26;9.60;;;6.32;;
70213;SDS011;60138;55.808;37.078;2023-02-08T14:25:53;8.63;;;5.63;;
70213;SDS011;60138;55.808;37.078;2023-02-08T14:28:43;7.22;;;5.53;;
70213;SDS011;60138;55.808;37.078;2023-02-08T14:31:10;6.90;;;5.22;;
70213;SDS011;60138;55.808;37.078;2023-02-08T14:33:41;7.47;;;5.60;;
70213;SDS011;60138;55.808;37.078;2023-02-08T14:36:30;8.20;;;5.95;;
70213;SDS011;60138;55.808;37.078;2023-02-08T14:41:51;7.97;;;4.97;;
70213;SDS011;60138;55.808;37.078;2023-02-08T14:52:58;9.48;;;5.40;;
70213;SDS011;60138;55.808;37.078;2023-02-08T14:55:33;9.45;;;6.10;;
70213;SDS011;60138;55.808;37.078;2023-02-08T14:58:06;10.75;;;6.15;;
70213;SDS011;60138;55.808;37.078;2023-02-08T15:00:36;13.83;;;7.53;;
70213;SDS011;60138;55.808;37.078;2023-02-08T15:03:03;9.88;;;6.10;;
70213;SDS011;60138;55.808;37.078;2023-02-08T15:05:34;10.48;;;6.57;;
70213;SDS011;60138;55.808;37.078;2023-02-08T15:08:05;10.40;;;6.30;;
70213;SDS011;60138;55.808;37.078;2023-02-08T15:10:32;7.25;;;5.70;;
70213;SDS011;60138;55.808;37.078;2023-02-08T15:12:59;6.97;;;5.13;;
70213;SDS011;60138;55.808;37.078;2023-02-08T15:17:58;7.75;;;5.95;;
70213;SDS011;60138;55.808;37.078;2023-02-08T15:20:26;9.13;;;6.13;;
70213;SDS011;60138;55.808;37.078;2023-02-08T15:25:34;7.22;;;5.32;;
70213;SDS011;60138;55.808;37.078;2023-02-08T15:28:18;8.25;;;6.15;;
70213;SDS011;60138;55.808;37.078;2023-02-08T15:30:51;8.30;;;6.15;;
70213;SDS011;60138;55.808;37.078;2023-02-08T15:33:23;11.47;;;5.97;;
70213;SDS011;60138;55.808;37.078;2023-02-08T15:36:04;8.50;;;5.32;;
70213;SDS011;60138;55.808;37.078;2023-02-08T15:38:49;9.10;;;5.87;;
70213;SDS011;60138;55.808;37.078;2023-02-08T15:46:45;12.87;;;7.73;;
70213;SDS011;60138;55.808;37.078;2023-02-08T15:49:13;9.20;;;5.70;;
70213;SDS011;60138;55.808;37.078;2023-02-08T15:51:42;8.80;;;5.78;;
70213;SDS011;60138;55.808;37.078;2023-02-08T15:54:16;7.93;;;5.43;;
70213;SDS011;60138;55.808;37.078;2023-02-08T15:59:28;10.43;;;6.47;;
70213;SDS011;60138;55.808;37.078;2023-02-08T16:01:56;9.57;;;5.65;;
70213;SDS011;60138;55.808;37.078;2023-02-08T16:04:27;9.30;;;6.63;;
70213;SDS011;60138;55.808;37.078;2023-02-08T16:06:53;11.35;;;6.80;;
70213;SDS011;60138;55.808;37.078;2023-02-08T16:09:22;10.80;;;7.27;;
70213;SDS011;60138;55.808;37.078;2023-02-08T16:11:51;9.63;;;7.45;;
70213;SDS011;60138;55.808;37.078;2023-02-08T16:14:19;11.40;;;7.15;;
70213;SDS011;60138;55.808;37.078;2023-02-08T16:16:48;8.98;;;6.47;;
70213;SDS011;60138;55.808;37.078;2023-02-08T16:19:28;11.00;;;5.30;;
70213;SDS011;60138;55.808;37.078;2023-02-08T16:22:52;10.10;;;6.22;;
70213;SDS011;60138;55.808;37.078;2023-02-08T16:25:20;11.20;;;6.95;;
70213;SDS011;60138;55.808;37.078;2023-02-08T16:27:48;11.87;;;6.80;;
70213;SDS011;60138;55.808;37.078;2023-02-08T16:30:16;12.70;;;7.18;;
70213;SDS011;60138;55.808;37.078;2023-02-08T16:32:43;10.50;;;6.93;;
70213;SDS011;60138;55.808;37.078;2023-02-08T16:35:10;10.37;;;7.00;;
70213;SDS011;60138;55.808;37.078;2023-02-08T16:37:37;9.13;;;6.80;;
70213;SDS011;60138;55.808;37.078;2023-02-08T16:40:28;10.83;;;7.63;;
70213;SDS011;60138;55.808;37.078;2023-02-08T16:43:16;8.35;;;6.03;;
70213;SDS011;60138;55.808;37.078;2023-02-08T16:45:44;10.25;;;6.40;;
70213;SDS011;60138;55.808;37.078;2023-02-08T16:48:26;13.33;;;7.30;;
70213;SDS011;60138;55.808;37.078;2023-02-08T16:50:55;8.10;;;6.05;;
70213;SDS011;60138;55.808;37.078;2023-02-08T16:53:20;10.47;;;6.37;;
70213;SDS011;60138;55.808;37.078;2023-02-08T16:55:47;7.03;;;6.07;;
70213;SDS011;60138;55.808;37.078;2023-02-08T16:58:13;10.70;;;7.55;;
70213;SDS011;60138;55.808;37.078;2023-02-08T17:00:39;8.32;;;6.00;;
70213;SDS011;60138;55.808;37.078;2023-02-08T17:03:05;10.77;;;7.03;;
70213;SDS011;60138;55.808;37.078;2023-02-08T17:05:34;10.18;;;7.07;;
70213;SDS011;60138;55.808;37.078;2023-02-08T17:08:19;9.93;;;6.80;;
70213;SDS011;60138;55.808;37.078;2023-02-08T17:11:04;10.10;;;7.32;;
70213;SDS011;60138;55.808;37.078;2023-02-08T17:13:30;9.70;;;6.82;;
70213;SDS011;60138;55.808;37.078;2023-02-08T17:15:56;10.50;;;6.90;;
70213;SDS011;60138;55.808;37.078;2023-02-08T17:18:22;12.70;;;8.18;;
70213;SDS011;60138;55.808;37.078;2023-02-08T17:20:48;11.50;;;6.70;;
70213;SDS011;60138;55.808;37.078;2023-02-08T17:23:14;11.85;;;7.15;;
70213;SDS011;60138;55.808;37.078;2023-02-08T17:25:40;11.00;;;6.87;;
70213;SDS011;60138;55.808;37.078;2023-02-08T17:28:08;12.85;;;8.15;;
70213;SDS011;60138;55.808;37.078;2023-02-08T17:30:41;15.82;;;8.27;;
70213;SDS011;60138;55.808;37.078;2023-02-08T17:33:09;11.60;;;7.13;;
70213;SDS011;60138;55.808;37.078;2023-02-08T17:35:36;9.80;;;6.80;;
70213;SDS011;60138;55.808;37.078;2023-02-08T17:38:02;8.82;;;6.70;;